sensor_id;sensor_type;location;lat;lon;timestamp;P1;durP1;ratioP1;P2;durP2;ratioP2
34982;SDS011;21187;50.976;13.720;2024-02-21T00:04:06;29.83;;;3.85;;
34982;SDS011;21187;50.976;13.720;2024-02-21T00:09:08;18.10;;;3.05;;
34982;SDS011;21187;50.976;13.720;2024-02-21T00:14:11;22.52;;;3.60;;
34982;SDS011;21187;50.976;13.720;2024-02-21T00:19:13;12.38;;;2.97;;
34982;SDS011;21187;50.976;13.720;2024-02-21T00:24:16;22.42;;;3.40;;
34982;SDS011;21187;50.976;13.720;2024-02-21T00:29:18;15.90;;;3.42;;
34982;SDS011;21187;50.976;13.720;2024-02-21T00:34:20;19.38;;;3.67;;
34982;SDS011;21187;50.976;13.720;2024-02-21T00:39:22;21.42;;;4.25;;
34982;SDS011;21187;50.976;13.720;2024-02-21T00:44:24;13.73;;;2.95;;
34982;SDS011;21187;50.976;13.720;2024-02-21T00:49:26;15.38;;;3.70;;
34982;SDS011;21187;50.976;13.720;2024-02-21T00:54:28;20.30;;;2.67;;
34982;SDS011;21187;50.976;13.720;2024-02-21T00:59:47;24.30;;;3.20;;
34982;SDS011;21187;50.976;13.720;2024-02-21T01:04:49;12.50;;;3.13;;
34982;SDS011;21187;50.976;13.720;2024-02-21T01:09:51;12.95;;;3.08;;
34982;SDS011;21187;50.976;13.720;2024-02-21T01:14:54;14.68;;;3.53;;
34982;SDS011;21187;50.976;13.720;2024-02-21T01:19:56;22.27;;;3.50;;
34982;SDS011;21187;50.976;13.720;2024-02-21T01:24:58;13.55;;;3.05;;
34982;SDS011;21187;50.976;13.720;2024-02-21T01:30:00;18.15;;;3.47;;
34982;SDS011;21187;50.976;13.720;2024-02-21T01:35:02;23.73;;;3.30;;
34982;SDS011;21187;50.976;13.720;2024-02-21T01:40:04;13.02;;;3.25;;
34982;SDS011;21187;50.976;13.720;2024-02-21T01:45:07;13.93;;;3.35;;
34982;SDS011;21187;50.976;13.720;2024-02-21T01:50:09;15.73;;;3.35;;
34982;SDS011;21187;50.976;13.720;2024-02-21T01:55:12;15.70;;;3.25;;
34982;SDS011;21187;50.976;13.720;2024-02-21T02:00:15;13.00;;;3.28;;
34982;SDS011;21187;50.976;13.720;2024-02-21T02:05:18;12.13;;;3.42;;
34982;SDS011;21187;50.976;13.720;2024-02-21T02:10:22;21.25;;;3.58;;
34982;SDS011;21187;50.976;13.720;2024-02-21T02:15:24;9.07;;;2.90;;
34982;SDS011;21187;50.976;13.720;2024-02-21T02:20:26;16.35;;;3.70;;
34982;SDS011;21187;50.976;13.720;2024-02-21T02:25:28;18.63;;;2.95;;
34982;SDS011;21187;50.976;13.720;2024-02-21T02:30:33;18.40;;;3.17;;
34982;SDS011;21187;50.976;13.720;2024-02-21T02:35:37;15.48;;;3.08;;
34982;SDS011;21187;50.976;13.720;2024-02-21T02:40:39;11.27;;;3.42;;
34982;SDS011;21187;50.976;13.720;2024-02-21T02:45:42;19.70;;;3.65;;
34982;SDS011;21187;50.976;13.720;2024-02-21T02:50:44;18.13;;;3.42;;
34982;SDS011;21187;50.976;13.720;2024-02-21T02:55:47;17.40;;;3.38;;
34982;SDS011;21187;50.976;13.720;2024-02-21T03:00:49;8.80;;;3.20;;
34982;SDS011;21187;50.976;13.720;2024-02-21T03:05:51;22.17;;;3.58;;
34982;SDS011;21187;50.976;13.720;2024-02-21T03:10:53;11.65;;;3.85;;
34982;SDS011;21187;50.976;13.720;2024-02-21T03:15:55;15.52;;;3.22;;
34982;SDS011;21187;50.976;13.720;2024-02-21T03:20:57;15.45;;;3.50;;
34982;SDS011;21187;50.976;13.720;2024-02-21T03:26:00;12.13;;;2.80;;
34982;SDS011;21187;50.976;13.720;2024-02-21T03:31:02;17.65;;;3.38;;
34982;SDS011;21187;50.976;13.720;2024-02-21T03:36:04;9.20;;;3.10;;
34982;SDS011;21187;50.976;13.720;2024-02-21T03:41:06;21.60;;;3.83;;
34982;SDS011;21187;50.976;13.720;2024-02-21T03:46:08;14.68;;;3.70;;
34982;SDS011;21187;50.976;13.720;2024-02-21T03:51:10;14.10;;;3.20;;
34982;SDS011;21187;50.976;13.720;2024-02-21T03:56:12;16.75;;;3.70;;
34982;SDS011;21187;50.976;13.720;2024-02-21T04:01:15;16.50;;;2.95;;
34982;SDS011;21187;50.976;13.720;2024-02-21T04:06:17;27.33;;;3.67;;
34982;SDS011;21187;50.976;13.720;2024-02-21T04:11:19;18.15;;;3.83;;
34982;SDS011;21187;50.976;13.720;2024-02-21T04:16:21;12.88;;;3.45;;
34982;SDS011;21187;50.976;13.720;2024-02-21T04:21:23;19.60;;;3.55;;
34982;SDS011;21187;50.976;13.720;2024-02-21T04:26:25;12.95;;;3.28;;
34982;SDS011;21187;50.976;13.720;2024-02-21T04:31:27;15.60;;;3.38;;
34982;SDS011;21187;50.976;13.720;2024-02-21T04:36:29;13.07;;;4.05;;
34982;SDS011;21187;50.976;13.720;2024-02-21T04:41:31;12.98;;;3.60;;
34982;SDS011;21187;50.976;13.720;2024-02-21T04:46:33;13.95;;;3.30;;
34982;SDS011;21187;50.976;13.720;2024-02-21T04:51:34;14.60;;;3.03;;
34982;SDS011;21187;50.976;13.720;2024-02-21T04:56:38;11.40;;;3.53;;
34982;SDS011;21187;50.976;13.720;2024-02-21T05:01:40;10.65;;;3.83;;
34982;SDS011;21187;50.976;13.720;2024-02-21T05:06:42;14.98;;;3.55;;
34982;SDS011;21187;50.976;13.720;2024-02-21T05:11:44;15.50;;;3.05;;
34982;SDS011;21187;50.976;13.720;2024-02-21T05:16:46;12.93;;;3.22;;
34982;SDS011;21187;50.976;13.720;2024-02-21T05:21:48;11.55;;;3.08;;
34982;SDS011;21187;50.976;13.720;2024-02-21T05:26:50;13.43;;;3.42;;
34982;SDS011;21187;50.976;13.720;2024-02-21T05:36:56;14.35;;;3.63;;
34982;SDS011;21187;50.976;13.720;2024-02-21T05:41:59;10.02;;;2.85;;
34982;SDS011;21187;50.976;13.720;2024-02-21T05:47:01;15.70;;;3.53;;
34982;SDS011;21187;50.976;13.720;2024-02-21T05:52:03;7.75;;;3.05;;
34982;SDS011;21187;50.976;13.720;2024-02-21T05:57:08;20.00;;;3.70;;
34982;SDS011;21187;50.976;13.720;2024-02-21T06:02:10;14.88;;;4.07;;
34982;SDS011;21187;50.976;13.720;2024-02-21T06:07:12;11.50;;;4.65;;
34982;SDS011;21187;50.976;13.720;2024-02-21T06:12:15;16.58;;;4.25;;
34982;SDS011;21187;50.976;13.720;2024-02-21T06:17:18;10.85;;;3.50;;
34982;SDS011;21187;50.976;13.720;2024-02-21T06:22:21;14.27;;;3.53;;
34982;SDS011;21187;50.976;13.720;2024-02-21T06:27:23;9.48;;;3.50;;
34982;SDS011;21187;50.976;13.720;2024-02-21T06:32:26;12.70;;;4.32;;
34982;SDS011;21187;50.976;13.720;2024-02-21T06:37:29;14.80;;;4.30;;
34982;SDS011;21187;50.976;13.720;2024-02-21T06:42:32;17.48;;;3.95;;
34982;SDS011;21187;50.976;13.720;2024-02-21T06:47:34;20.75;;;3.83;;
34982;SDS011;21187;50.976;13.720;2024-02-21T06:52:37;12.95;;;3.25;;
34982;SDS011;21187;50.976;13.720;2024-02-21T06:57:39;19.17;;;4.07;;
34982;SDS011;21187;50.976;13.720;2024-02-21T07:02:41;21.85;;;4.97;;
34982;SDS011;21187;50.976;13.720;2024-02-21T07:07:43;16.83;;;4.03;;
34982;SDS011;21187;50.976;13.720;2024-02-21T07:12:45;14.75;;;3.53;;
34982;SDS011;21187;50.976;13.720;2024-02-21T07:17:48;12.43;;;3.08;;
34982;SDS011;21187;50.976;13.720;2024-02-21T07:22:50;14.50;;;3.63;;
34982;SDS011;21187;50.976;13.720;2024-02-21T07:27:52;10.27;;;2.80;;
34982;SDS011;21187;50.976;13.720;2024-02-21T07:32:54;9.82;;;2.63;;
34982;SDS011;21187;50.976;13.720;2024-02-21T07:37:56;14.70;;;2.72;;
34982;SDS011;21187;50.976;13.720;2024-02-21T07:42:58;12.30;;;2.78;;
34982;SDS011;21187;50.976;13.720;2024-02-21T07:48:01;10.95;;;2.78;;
34982;SDS011;21187;50.976;13.720;2024-02-21T07:53:04;14.95;;;3.00;;
34982;SDS011;21187;50.976;13.720;2024-02-21T07:58:06;11.82;;;2.60;;
34982;SDS011;21187;50.976;13.720;2024-02-21T08:03:08;14.68;;;2.80;;
34982;SDS011;21187;50.976;13.720;2024-02-21T08:08:10;15.10;;;4.15;;
34982;SDS011;21187;50.976;13.720;2024-02-21T08:13:12;9.07;;;2.67;;
34982;SDS011;21187;50.976;13.720;2024-02-21T08:18:14;12.40;;;2.60;;
34982;SDS011;21187;50.976;13.720;2024-02-21T08:23:17;9.68;;;2.72;;
34982;SDS011;21187;50.976;13.720;2024-02-21T08:28:20;7.18;;;2.63;;
34982;SDS011;21187;50.976;13.720;2024-02-21T08:33:22;10.32;;;2.80;;
34982;SDS011;21187;50.976;13.720;2024-02-21T08:38:27;10.98;;;3.30;;
34982;SDS011;21187;50.976;13.720;2024-02-21T08:43:28;8.15;;;3.13;;
34982;SDS011;21187;50.976;13.720;2024-02-21T08:48:32;8.80;;;2.75;;
34982;SDS011;21187;50.976;13.720;2024-02-21T08:53:34;8.57;;;2.78;;
34982;SDS011;21187;50.976;13.720;2024-02-21T08:58:36;21.20;;;3.75;;
34982;SDS011;21187;50.976;13.720;2024-02-21T09:03:39;13.80;;;3.22;;
34982;SDS011;21187;50.976;13.720;2024-02-21T09:08:44;13.77;;;3.33;;
34982;SDS011;21187;50.976;13.720;2024-02-21T09:13:46;13.60;;;3.17;;
34982;SDS011;21187;50.976;13.720;2024-02-21T09:18:48;9.75;;;3.22;;
34982;SDS011;21187;50.976;13.720;2024-02-21T09:23:50;6.93;;;2.83;;
34982;SDS011;21187;50.976;13.720;2024-02-21T09:28:52;13.65;;;3.20;;
34982;SDS011;21187;50.976;13.720;2024-02-21T09:33:54;7.50;;;2.50;;
34982;SDS011;21187;50.976;13.720;2024-02-21T09:38:56;10.60;;;2.28;;
34982;SDS011;21187;50.976;13.720;2024-02-21T09:43:58;14.10;;;3.08;;
34982;SDS011;21187;50.976;13.720;2024-02-21T09:49:08;16.65;;;3.03;;
34982;SDS011;21187;50.976;13.720;2024-02-21T09:54:12;12.93;;;3.03;;
34982;SDS011;21187;50.976;13.720;2024-02-21T09:59:17;7.88;;;3.20;;
34982;SDS011;21187;50.976;13.720;2024-02-21T10:04:20;16.50;;;2.95;;
34982;SDS011;21187;50.976;13.720;2024-02-21T10:09:26;9.13;;;2.45;;
34982;SDS011;21187;50.976;13.720;2024-02-21T10:14:30;12.25;;;2.95;;
34982;SDS011;21187;50.976;13.720;2024-02-21T10:19:32;15.55;;;3.03;;
34982;SDS011;21187;50.976;13.720;2024-02-21T10:24:35;8.98;;;3.35;;
34982;SDS011;21187;50.976;13.720;2024-02-21T10:29:40;14.10;;;3.53;;
34982;SDS011;21187;50.976;13.720;2024-02-21T10:34:43;12.00;;;2.80;;
34982;SDS011;21187;50.976;13.720;2024-02-21T10:39:47;12.02;;;2.95;;
34982;SDS011;21187;50.976;13.720;2024-02-21T10:44:50;7.53;;;2.53;;
34982;SDS011;21187;50.976;13.720;2024-02-21T10:49:57;13.27;;;2.78;;
34982;SDS011;21187;50.976;13.720;2024-02-21T10:55:04;14.68;;;3.28;;
34982;SDS011;21187;50.976;13.720;2024-02-21T11:00:12;13.95;;;3.88;;
34982;SDS011;21187;50.976;13.720;2024-02-21T11:05:19;11.38;;;2.42;;
34982;SDS011;21187;50.976;13.720;2024-02-21T11:10:24;4.68;;;2.25;;
34982;SDS011;21187;50.976;13.720;2024-02-21T11:15:27;7.63;;;2.55;;
34982;SDS011;21187;50.976;13.720;2024-02-21T11:20:33;10.18;;;3.17;;
34982;SDS011;21187;50.976;13.720;2024-02-21T11:25:36;7.93;;;2.45;;
34982;SDS011;21187;50.976;13.720;2024-02-21T11:30:38;4.70;;;2.65;;
34982;SDS011;21187;50.976;13.720;2024-02-21T11:35:41;9.80;;;2.65;;
34982;SDS011;21187;50.976;13.720;2024-02-21T11:40:46;8.90;;;2.50;;
34982;SDS011;21187;50.976;13.720;2024-02-21T11:45:49;10.38;;;3.13;;
34982;SDS011;21187;50.976;13.720;2024-02-21T11:50:54;13.73;;;3.38;;
34982;SDS011;21187;50.976;13.720;2024-02-21T11:55:56;7.45;;;3.00;;
34982;SDS011;21187;50.976;13.720;2024-02-21T12:00:58;4.00;;;2.35;;
34982;SDS011;21187;50.976;13.720;2024-02-21T12:06:01;5.68;;;3.00;;
34982;SDS011;21187;50.976;13.720;2024-02-21T12:16:25;7.88;;;2.30;;
34982;SDS011;21187;50.976;13.720;2024-02-21T12:21:32;8.70;;;2.25;;
34982;SDS011;21187;50.976;13.720;2024-02-21T12:26:38;9.37;;;2.77;;
34982;SDS011;21187;50.976;13.720;2024-02-21T12:31:40;13.13;;;3.13;;
34982;SDS011;21187;50.976;13.720;2024-02-21T12:36:44;8.45;;;2.80;;
34982;SDS011;21187;50.976;13.720;2024-02-21T12:41:49;9.43;;;3.22;;
34982;SDS011;21187;50.976;13.720;2024-02-21T12:46:51;13.20;;;3.75;;
34982;SDS011;21187;50.976;13.720;2024-02-21T12:51:56;9.30;;;3.33;;
34982;SDS011;21187;50.976;13.720;2024-02-21T12:56:58;15.93;;;3.63;;
34982;SDS011;21187;50.976;13.720;2024-02-21T13:02:04;9.43;;;3.00;;
34982;SDS011;21187;50.976;13.720;2024-02-21T13:07:06;11.25;;;3.00;;
34982;SDS011;21187;50.976;13.720;2024-02-21T13:12:09;8.30;;;2.97;;
34982;SDS011;21187;50.976;13.720;2024-02-21T13:17:11;15.38;;;2.85;;
34982;SDS011;21187;50.976;13.720;2024-02-21T13:22:13;10.75;;;3.05;;
34982;SDS011;21187;50.976;13.720;2024-02-21T13:27:16;14.43;;;3.20;;
34982;SDS011;21187;50.976;13.720;2024-02-21T13:32:18;13.65;;;2.85;;
34982;SDS011;21187;50.976;13.720;2024-02-21T13:37:20;14.30;;;2.63;;
34982;SDS011;21187;50.976;13.720;2024-02-21T13:42:23;5.40;;;2.30;;
34982;SDS011;21187;50.976;13.720;2024-02-21T13:47:28;7.85;;;2.00;;
34982;SDS011;21187;50.976;13.720;2024-02-21T13:52:31;5.03;;;2.35;;
34982;SDS011;21187;50.976;13.720;2024-02-21T13:57:33;9.27;;;2.05;;
34982;SDS011;21187;50.976;13.720;2024-02-21T14:02:35;10.15;;;1.95;;
34982;SDS011;21187;50.976;13.720;2024-02-21T14:07:37;6.03;;;2.03;;
34982;SDS011;21187;50.976;13.720;2024-02-21T14:12:40;7.85;;;1.80;;
34982;SDS011;21187;50.976;13.720;2024-02-21T14:17:42;9.25;;;1.40;;
34982;SDS011;21187;50.976;13.720;2024-02-21T14:22:44;6.80;;;1.67;;
34982;SDS011;21187;50.976;13.720;2024-02-21T14:27:46;5.50;;;1.55;;
34982;SDS011;21187;50.976;13.720;2024-02-21T14:32:48;5.78;;;1.63;;
34982;SDS011;21187;50.976;13.720;2024-02-21T14:37:50;5.85;;;1.48;;
34982;SDS011;21187;50.976;13.720;2024-02-21T14:42:54;10.68;;;2.10;;
34982;SDS011;21187;50.976;13.720;2024-02-21T14:47:56;4.35;;;1.35;;
34982;SDS011;21187;50.976;13.720;2024-02-21T14:52:58;6.78;;;1.50;;
34982;SDS011;21187;50.976;13.720;2024-02-21T14:58:00;1.70;;;0.93;;
34982;SDS011;21187;50.976;13.720;2024-02-21T15:03:02;7.03;;;1.70;;
34982;SDS011;21187;50.976;13.720;2024-02-21T15:08:04;3.97;;;1.65;;
34982;SDS011;21187;50.976;13.720;2024-02-21T15:13:09;6.55;;;1.48;;
34982;SDS011;21187;50.976;13.720;2024-02-21T15:18:11;6.47;;;1.75;;
34982;SDS011;21187;50.976;13.720;2024-02-21T15:23:13;6.93;;;1.52;;
34982;SDS011;21187;50.976;13.720;2024-02-21T15:28:15;4.97;;;1.48;;
34982;SDS011;21187;50.976;13.720;2024-02-21T15:33:17;7.28;;;2.00;;
34982;SDS011;21187;50.976;13.720;2024-02-21T15:38:19;10.55;;;1.77;;
34982;SDS011;21187;50.976;13.720;2024-02-21T15:43:21;11.88;;;2.15;;
34982;SDS011;21187;50.976;13.720;2024-02-21T15:48:26;10.73;;;1.80;;
34982;SDS011;21187;50.976;13.720;2024-02-21T15:53:28;13.40;;;3.25;;
34982;SDS011;21187;50.976;13.720;2024-02-21T15:58:32;12.07;;;5.68;;
34982;SDS011;21187;50.976;13.720;2024-02-21T16:03:34;8.15;;;3.85;;
34982;SDS011;21187;50.976;13.720;2024-02-21T16:08:45;30.42;;;3.90;;
34982;SDS011;21187;50.976;13.720;2024-02-21T16:13:52;9.27;;;3.00;;
34982;SDS011;21187;50.976;13.720;2024-02-21T16:18:54;9.88;;;2.83;;
34982;SDS011;21187;50.976;13.720;2024-02-21T16:23:57;10.02;;;2.67;;
34982;SDS011;21187;50.976;13.720;2024-02-21T16:28:59;6.38;;;2.53;;
34982;SDS011;21187;50.976;13.720;2024-02-21T16:34:01;7.18;;;3.22;;
34982;SDS011;21187;50.976;13.720;2024-02-21T16:39:04;11.30;;;3.28;;
34982;SDS011;21187;50.976;13.720;2024-02-21T16:44:09;14.60;;;3.50;;
34982;SDS011;21187;50.976;13.720;2024-02-21T16:49:11;13.73;;;4.13;;
34982;SDS011;21187;50.976;13.720;2024-02-21T16:54:21;24.40;;;4.03;;
34982;SDS011;21187;50.976;13.720;2024-02-21T16:59:24;15.63;;;6.90;;
34982;SDS011;21187;50.976;13.720;2024-02-21T17:04:26;13.27;;;6.63;;
34982;SDS011;21187;50.976;13.720;2024-02-21T17:09:28;26.13;;;9.50;;
34982;SDS011;21187;50.976;13.720;2024-02-21T17:14:32;27.63;;;10.07;;
34982;SDS011;21187;50.976;13.720;2024-02-21T17:19:35;13.85;;;5.90;;
34982;SDS011;21187;50.976;13.720;2024-02-21T17:24:39;15.52;;;5.72;;
34982;SDS011;21187;50.976;13.720;2024-02-21T17:29:41;19.33;;;6.43;;
34982;SDS011;21187;50.976;13.720;2024-02-21T17:34:43;18.65;;;6.55;;
34982;SDS011;21187;50.976;13.720;2024-02-21T17:39:45;11.02;;;4.20;;
34982;SDS011;21187;50.976;13.720;2024-02-21T17:44:48;11.63;;;3.88;;
34982;SDS011;21187;50.976;13.720;2024-02-21T17:49:50;42.45;;;15.43;;
34982;SDS011;21187;50.976;13.720;2024-02-21T17:54:52;13.07;;;4.03;;
34982;SDS011;21187;50.976;13.720;2024-02-21T17:59:54;5.28;;;1.70;;
34982;SDS011;21187;50.976;13.720;2024-02-21T18:04:57;6.68;;;1.80;;
34982;SDS011;21187;50.976;13.720;2024-02-21T18:10:00;4.10;;;1.55;;
34982;SDS011;21187;50.976;13.720;2024-02-21T18:15:02;6.05;;;1.88;;
34982;SDS011;21187;50.976;13.720;2024-02-21T18:20:05;6.32;;;1.55;;
34982;SDS011;21187;50.976;13.720;2024-02-21T18:25:10;10.93;;;2.30;;
34982;SDS011;21187;50.976;13.720;2024-02-21T18:30:12;3.30;;;1.60;;
34982;SDS011;21187;50.976;13.720;2024-02-21T18:35:14;7.18;;;1.75;;
34982;SDS011;21187;50.976;13.720;2024-02-21T18:40:17;5.18;;;1.65;;
34982;SDS011;21187;50.976;13.720;2024-02-21T18:45:19;3.80;;;1.60;;
34982;SDS011;21187;50.976;13.720;2024-02-21T18:50:21;5.68;;;1.70;;
34982;SDS011;21187;50.976;13.720;2024-02-21T18:55:25;4.65;;;1.95;;
34982;SDS011;21187;50.976;13.720;2024-02-21T19:00:27;5.05;;;1.58;;
34982;SDS011;21187;50.976;13.720;2024-02-21T19:05:29;5.43;;;1.25;;
34982;SDS011;21187;50.976;13.720;2024-02-21T19:10:31;5.38;;;2.05;;
34982;SDS011;21187;50.976;13.720;2024-02-21T19:15:34;10.82;;;1.90;;
34982;SDS011;21187;50.976;13.720;2024-02-21T19:20:39;8.27;;;1.90;;
34982;SDS011;21187;50.976;13.720;2024-02-21T19:25:41;5.32;;;1.85;;
34982;SDS011;21187;50.976;13.720;2024-02-21T19:30:44;3.63;;;1.40;;
34982;SDS011;21187;50.976;13.720;2024-02-21T19:35:47;1.17;;;1.00;;
34982;SDS011;21187;50.976;13.720;2024-02-21T19:40:49;7.80;;;1.70;;
34982;SDS011;21187;50.976;13.720;2024-02-21T19:45:53;3.70;;;1.30;;
34982;SDS011;21187;50.976;13.720;2024-02-21T19:50:55;5.65;;;1.52;;
34982;SDS011;21187;50.976;13.720;2024-02-21T19:55:59;6.63;;;2.30;;
34982;SDS011;21187;50.976;13.720;2024-02-21T20:01:02;3.75;;;1.40;;
34982;SDS011;21187;50.976;13.720;2024-02-21T20:06:08;5.93;;;1.73;;
34982;SDS011;21187;50.976;13.720;2024-02-21T20:11:10;4.63;;;1.65;;
34982;SDS011;21187;50.976;13.720;2024-02-21T20:16:13;4.90;;;1.20;;
34982;SDS011;21187;50.976;13.720;2024-02-21T20:21:14;4.82;;;1.27;;
34982;SDS011;21187;50.976;13.720;2024-02-21T20:26:17;3.28;;;1.42;;
34982;SDS011;21187;50.976;13.720;2024-02-21T20:31:19;3.67;;;1.08;;
34982;SDS011;21187;50.976;13.720;2024-02-21T20:36:23;6.63;;;1.75;;
34982;SDS011;21187;50.976;13.720;2024-02-21T20:41:25;4.15;;;1.30;;
34982;SDS011;21187;50.976;13.720;2024-02-21T20:46:27;8.57;;;1.80;;
34982;SDS011;21187;50.976;13.720;2024-02-21T20:51:29;5.35;;;1.27;;
34982;SDS011;21187;50.976;13.720;2024-02-21T20:56:30;4.30;;;2.00;;
34982;SDS011;21187;50.976;13.720;2024-02-21T21:01:32;6.75;;;1.90;;
34982;SDS011;21187;50.976;13.720;2024-02-21T21:06:44;3.95;;;1.98;;
34982;SDS011;21187;50.976;13.720;2024-02-21T21:11:47;5.22;;;2.10;;
34982;SDS011;21187;50.976;13.720;2024-02-21T21:16:49;2.90;;;1.60;;
34982;SDS011;21187;50.976;13.720;2024-02-21T21:21:51;6.20;;;1.30;;
34982;SDS011;21187;50.976;13.720;2024-02-21T21:26:54;5.43;;;1.67;;
34982;SDS011;21187;50.976;13.720;2024-02-21T21:31:56;9.60;;;1.23;;
34982;SDS011;21187;50.976;13.720;2024-02-21T21:36:58;2.88;;;1.00;;
34982;SDS011;21187;50.976;13.720;2024-02-21T21:42:00;3.22;;;1.25;;
34982;SDS011;21187;50.976;13.720;2024-02-21T21:47:05;4.72;;;1.20;;
34982;SDS011;21187;50.976;13.720;2024-02-21T21:52:07;4.78;;;1.17;;
34982;SDS011;21187;50.976;13.720;2024-02-21T21:57:09;4.80;;;1.20;;
34982;SDS011;21187;50.976;13.720;2024-02-21T22:02:11;4.45;;;1.08;;
34982;SDS011;21187;50.976;13.720;2024-02-21T22:07:13;4.95;;;1.00;;
34982;SDS011;21187;50.976;13.720;2024-02-21T22:12:16;4.13;;;0.88;;
34982;SDS011;21187;50.976;13.720;2024-02-21T22:17:17;1.83;;;0.85;;
34982;SDS011;21187;50.976;13.720;2024-02-21T22:22:20;8.40;;;1.15;;
34982;SDS011;21187;50.976;13.720;2024-02-21T22:27:22;3.00;;;0.63;;
34982;SDS011;21187;50.976;13.720;2024-02-21T22:32:26;2.45;;;0.68;;
34982;SDS011;21187;50.976;13.720;2024-02-21T22:37:28;1.25;;;0.68;;
34982;SDS011;21187;50.976;13.720;2024-02-21T22:42:29;1.98;;;0.73;;
34982;SDS011;21187;50.976;13.720;2024-02-21T22:47:31;3.10;;;0.88;;
34982;SDS011;21187;50.976;13.720;2024-02-21T22:52:33;1.10;;;0.50;;
34982;SDS011;21187;50.976;13.720;2024-02-21T22:57:35;4.55;;;1.10;;
34982;SDS011;21187;50.976;13.720;2024-02-21T23:02:39;1.80;;;0.70;;
34982;SDS011;21187;50.976;13.720;2024-02-21T23:07:41;1.63;;;0.60;;
34982;SDS011;21187;50.976;13.720;2024-02-21T23:12:43;2.97;;;0.80;;
34982;SDS011;21187;50.976;13.720;2024-02-21T23:17:45;2.30;;;0.80;;
34982;SDS011;21187;50.976;13.720;2024-02-21T23:22:47;2.08;;;0.75;;
34982;SDS011;21187;50.976;13.720;2024-02-21T23:27:50;3.67;;;0.60;;
34982;SDS011;21187;50.976;13.720;2024-02-21T23:32:52;0.75;;;0.30;;
34982;SDS011;21187;50.976;13.720;2024-02-21T23:37:54;0.47;;;0.32;;
34982;SDS011;21187;50.976;13.720;2024-02-21T23:42:56;0.88;;;0.35;;
34982;SDS011;21187;50.976;13.720;2024-02-21T23:48:00;0.50;;;0.50;;
34982;SDS011;21187;50.976;13.720;2024-02-21T23:53:02;2.10;;;0.40;;
34982;SDS011;21187;50.976;13.720;2024-02-21T23:58:04;0.80;;;0.60;;
